createdAt,value
2022-11-13T00:03:54.582Z,98772.50
2022-11-13T00:09:16.138Z,98746.72
2022-11-13T00:14:37.720Z,98698.28
2022-11-13T00:19:58.942Z,98749.25
2022-11-13T00:25:20.331Z,98751.00
2022-11-13T00:30:41.914Z,98747.56
2022-11-13T00:36:08.919Z,98764.03
2022-11-13T00:41:29.978Z,98766.00
2022-11-13T00:46:51.795Z,98746.91
2022-11-13T00:52:12.834Z,98745.16
2022-11-13T00:57:34.224Z,98758.19
2022-11-13T01:02:55.231Z,98746.25
2022-11-13T01:08:16.648Z,98761.63
2022-11-13T01:13:38.682Z,98762.69
2022-11-13T01:18:59.926Z,98749.09
2022-11-13T01:24:20.940Z,98761.91
2022-11-13T01:29:42.789Z,98749.97
2022-11-13T01:35:04.188Z,98734.91
2022-11-13T01:40:25.340Z,98755.38
2022-11-13T01:45:58.495Z,98745.94
2022-11-13T01:51:30.458Z,98744.63
2022-11-13T01:56:52.392Z,98725.63
2022-11-13T02:02:13.310Z,98736.16
2022-11-13T02:07:34.513Z,98742.16
2022-11-13T02:12:55.656Z,98726.75
2022-11-13T02:18:18.555Z,98726.13
2022-11-13T02:24:07.287Z,98722.59
2022-11-13T02:29:28.714Z,98703.28
2022-11-13T02:34:49.568Z,98731.41
2022-11-13T02:40:11.311Z,98704.06
2022-11-13T02:45:32.446Z,98705.75
2022-11-13T02:50:53.883Z,98710.97
2022-11-13T02:56:15.576Z,98698.28
2022-11-13T03:01:36.502Z,98695.00
2022-11-13T03:06:57.841Z,98684.09
2022-11-13T03:12:19.058Z,98673.81
2022-11-13T03:17:40.469Z,98677.91
2022-11-13T03:23:01.404Z,98688.22
2022-11-13T03:28:22.629Z,98685.66
2022-11-13T03:33:43.785Z,98692.47
2022-11-13T03:39:05.586Z,98690.78
2022-11-13T03:44:26.856Z,98676.97
2022-11-13T03:49:48.298Z,98685.69
2022-11-13T03:55:09.600Z,98725.22
2022-11-13T04:00:31.529Z,98723.66
2022-11-13T04:05:52.609Z,98723.81
2022-11-13T04:11:13.795Z,98707.69
2022-11-13T04:16:35.060Z,98727.19
2022-11-13T04:21:56.171Z,98721.38
2022-11-13T04:27:17.266Z,98737.63
2022-11-13T04:32:38.552Z,98760.81
2022-11-13T04:37:59.840Z,98751.50
2022-11-13T04:43:20.897Z,98741.28
2022-11-13T04:48:42.181Z,98757.72
2022-11-13T04:54:03.691Z,98740.59
2022-11-13T04:59:24.705Z,98743.84
2022-11-13T05:04:47.562Z,98736.06
2022-11-13T05:10:08.736Z,98747.13
2022-11-13T05:15:30.040Z,98748.00
2022-11-13T05:20:51.348Z,98743.88
2022-11-13T05:26:14.010Z,98769.56
2022-11-13T05:31:35.129Z,98753.25
2022-11-13T05:36:56.343Z,98785.81
2022-11-13T05:42:17.755Z,98756.38
2022-11-13T05:47:39.056Z,98767.47
2022-11-13T05:53:00.324Z,98772.56
2022-11-13T05:58:21.624Z,98779.47
2022-11-13T06:03:43.495Z,98781.09
2022-11-13T06:09:07.168Z,98804.31
2022-11-13T06:14:28.479Z,98845.81
2022-11-13T06:19:49.636Z,98914.06
2022-11-13T06:25:11.100Z,98916.16
2022-11-13T06:30:32.492Z,98921.34
2022-11-13T06:35:53.787Z,98922.22
2022-11-13T06:41:16.740Z,98931.59
2022-11-13T06:46:37.779Z,98946.94
2022-11-13T06:51:59.131Z,98955.53
2022-11-13T06:57:20.416Z,98968.38
2022-11-13T07:02:41.763Z,98965.78
2022-11-13T07:08:03.280Z,98979.44
2022-11-13T07:13:26.738Z,99012.84
2022-11-13T07:18:52.641Z,98976.00
2022-11-13T07:24:16.941Z,98999.09
2022-11-13T07:29:39.376Z,99006.81
2022-11-13T07:35:00.742Z,99002.44
2022-11-13T07:40:21.752Z,99013.56
2022-11-13T07:45:43.319Z,99015.19
2022-11-13T07:51:04.451Z,99024.56
2022-11-13T07:56:25.860Z,99023.69
2022-11-13T08:01:47.291Z,99030.53
2022-11-13T08:07:10.907Z,99021.88
2022-11-13T08:12:32.167Z,99019.31
2022-11-13T08:18:00.484Z,99047.59
2022-11-13T08:23:21.919Z,99033.84
2022-11-13T08:28:44.297Z,99029.63
2022-11-13T08:34:05.661Z,99036.41
2022-11-13T08:39:26.908Z,99044.19
2022-11-13T08:44:48.174Z,99032.13
2022-11-13T08:50:09.880Z,99039.81
2022-11-13T08:55:32.536Z,99027.75
2022-11-13T09:00:53.640Z,99049.91
2022-11-13T09:06:15.344Z,99044.53
2022-11-13T09:11:36.697Z,99040.19
2022-11-13T09:16:58.365Z,99038.53
2022-11-13T09:22:20.119Z,99047.91
2022-11-13T09:27:41.190Z,99047.94
2022-11-13T09:33:02.387Z,99068.66
2022-11-13T09:38:24.061Z,99051.50
2022-11-13T09:43:56.735Z,99063.25
2022-11-13T09:49:41.891Z,99133.78
2022-11-13T09:55:04.666Z,99102.16
2022-11-13T10:00:29.077Z,99111.72
2022-11-13T10:06:04.634Z,99126.41
2022-11-13T10:11:54.893Z,99153.06
2022-11-13T10:17:29.906Z,99125.69
2022-11-13T10:23:15.819Z,99145.28
2022-11-13T10:28:55.128Z,99150.31
2022-11-13T10:34:18.209Z,99144.25
2022-11-13T10:39:44.095Z,99147.56
2022-11-13T10:45:13.627Z,99162.22
2022-11-13T10:50:35.720Z,99177.84
2022-11-13T10:55:58.032Z,99165.91
2022-11-13T11:01:23.986Z,99177.03
2022-11-13T11:12:30.918Z,99234.59
2022-11-13T11:18:02.712Z,99214.97
2022-11-13T11:23:53.269Z,99215.84
2022-11-13T11:29:29.711Z,99227.00
2022-11-13T11:35:05.304Z,99234.69
2022-11-13T11:40:36.517Z,99232.13
2022-11-13T11:45:57.887Z,99248.44
2022-11-13T11:51:34.891Z,99251.88
2022-11-13T11:57:00.306Z,99260.44
2022-11-13T12:02:21.223Z,99260.44
2022-11-13T12:07:55.741Z,99290.47
2022-11-13T12:13:28.553Z,99295.59
2022-11-13T12:19:10.880Z,99314.47
2022-11-13T12:24:32.678Z,99320.47
2022-11-13T12:30:09.291Z,99323.03
2022-11-13T12:35:31.184Z,99296.41
2022-11-13T12:41:24.346Z,99325.56
2022-11-13T12:46:46.130Z,99336.69
2022-11-13T12:52:17.054Z,99372.69
2022-11-13T12:57:47.977Z,99394.09
2022-11-13T13:03:24.497Z,99394.94
2022-11-13T13:08:46.781Z,99398.38
2022-11-13T13:14:07.794Z,99405.16
2022-11-13T13:19:31.699Z,99420.47
2022-11-13T13:25:06.293Z,99405.81
2022-11-13T13:30:33.877Z,99424.75
2022-11-13T13:36:00.459Z,99413.50
2022-11-13T13:41:31.155Z,99482.94
2022-11-13T13:46:52.424Z,99433.25
2022-11-13T13:52:17.063Z,99475.28
2022-11-13T13:57:42.576Z,99455.47
2022-11-13T14:03:04.593Z,99480.31
2022-11-13T14:08:27.290Z,99506.00
2022-11-13T14:13:48.868Z,99502.53
2022-11-13T14:19:11.910Z,99494.78
2022-11-13T14:24:53.023Z,99515.41
2022-11-13T14:30:27.265Z,99490.44
2022-11-13T14:35:56.719Z,99487.91
2022-11-13T14:41:26.075Z,99517.88
2022-11-13T14:46:47.729Z,99530.78
2022-11-13T14:52:23.521Z,99541.09
2022-11-13T14:57:50.896Z,99546.19
2022-11-13T15:03:12.893Z,99543.56
2022-11-13T15:08:34.789Z,99564.13
2022-11-13T15:14:00.073Z,99531.34
2022-11-13T15:19:35.628Z,99570.13
2022-11-13T15:24:56.758Z,99588.94
2022-11-13T15:30:18.657Z,99559.66
2022-11-13T15:35:41.443Z,99537.31
2022-11-13T15:41:02.606Z,99619.66
2022-11-13T15:46:25.043Z,99623.78
2022-11-13T15:51:46.647Z,99624.63
2022-11-13T15:57:18.322Z,99591.91
2022-11-13T16:02:40.102Z,99596.09
2022-11-13T16:08:01.204Z,99631.94
2022-11-13T16:13:22.455Z,99634.56
2022-11-13T16:18:43.366Z,99641.34
2022-11-13T16:24:04.956Z,99640.38
2022-11-13T16:29:26.112Z,99650.69
2022-11-13T16:34:47.830Z,99660.22
2022-11-13T16:40:30.745Z,99674.81
2022-11-13T16:45:52.878Z,99664.44
2022-11-13T16:51:15.054Z,99678.91
2022-11-13T16:56:36.586Z,99664.25
2022-11-13T17:01:57.863Z,99689.22
2022-11-13T17:07:19.003Z,99695.22
2022-11-13T17:12:41.260Z,99681.28
2022-11-13T17:18:02.720Z,99689.13
2022-11-13T17:23:26.700Z,99706.22
2022-11-13T17:28:48.546Z,99706.97
2022-11-13T17:34:13.257Z,99724.00
2022-11-13T17:39:37.308Z,99709.25
2022-11-13T17:44:58.477Z,99732.97
2022-11-13T17:50:19.665Z,99712.22
2022-11-13T17:55:40.647Z,99737.06
2022-11-13T18:01:07.918Z,99725.97
2022-11-13T18:06:29.281Z,99740.56
2022-11-13T18:11:50.479Z,99743.75
2022-11-13T18:17:11.422Z,99742.63
2022-11-13T18:22:32.607Z,99734.84
2022-11-13T18:27:53.855Z,99751.94
2022-11-13T18:33:15.083Z,99745.81
2022-11-13T18:38:36.625Z,99748.19
2022-11-13T18:43:58.039Z,99742.03
2022-11-13T18:49:19.283Z,99747.16
2022-11-13T18:54:40.398Z,99756.59
2022-11-13T19:00:01.597Z,99773.03
2022-11-13T19:05:22.831Z,99754.41
2022-11-13T19:10:44.024Z,99734.63
2022-11-13T19:16:13.284Z,99725.88
2022-11-13T19:21:36.213Z,99744.00
2022-11-13T19:26:57.433Z,99768.06
2022-11-13T19:32:21.279Z,99757.06
2022-11-13T19:37:42.346Z,99769.88
2022-11-13T19:43:03.605Z,99757.31
2022-11-13T19:48:24.588Z,99751.53
2022-11-13T19:53:46.566Z,99762.47
2022-11-13T19:59:11.458Z,99761.34
2022-11-13T20:04:33.460Z,99785.22
2022-11-13T20:09:54.759Z,99783.28
2022-11-13T20:15:16.103Z,99780.56
2022-11-13T20:20:37.175Z,99790.50
2022-11-13T20:26:03.604Z,99782.66
2022-11-13T20:31:25.728Z,99762.94
2022-11-13T20:36:46.763Z,99784.41
2022-11-13T20:42:08.457Z,99792.91
2022-11-13T20:47:29.504Z,99760.00
2022-11-13T20:52:50.765Z,99803.81
2022-11-13T20:58:11.680Z,99809.81
2022-11-13T21:03:39.882Z,99812.44
2022-11-13T21:09:03.650Z,99821.91
2022-11-13T21:14:25.081Z,99818.41
2022-11-13T21:19:46.372Z,99805.38
2022-11-13T21:25:07.928Z,99835.38
2022-11-13T21:30:29.283Z,99840.56
2022-11-13T21:35:50.364Z,99824.06
2022-11-13T21:41:22.057Z,99832.81
2022-11-13T21:46:43.504Z,99815.66
2022-11-13T21:52:04.730Z,99835.13
2022-11-13T21:57:27.203Z,99810.66
2022-11-13T22:02:48.464Z,99861.41
2022-11-13T22:08:09.566Z,99861.25
2022-11-13T22:13:30.910Z,99873.97
2022-11-13T22:19:00.381Z,99878.19
2022-11-13T22:24:21.569Z,99886.75
2022-11-13T22:29:42.964Z,99881.91
2022-11-13T22:35:06.038Z,99887.81
2022-11-13T22:40:26.989Z,99905.63
2022-11-13T22:45:48.226Z,99910.63
2022-11-13T22:51:15.516Z,99923.22
2022-11-13T22:56:37.948Z,99917.63
2022-11-13T23:01:59.318Z,99912.22
2022-11-13T23:07:20.570Z,99909.81
2022-11-13T23:12:41.867Z,99904.72
2022-11-13T23:18:07.161Z,99903.56
2022-11-13T23:23:31.227Z,99884.97
2022-11-13T23:28:52.455Z,99948.28
2022-11-13T23:34:16.618Z,99937.31
2022-11-13T23:39:48.157Z,99925.00
2022-11-13T23:45:09.598Z,99931.47
2022-11-13T23:50:30.740Z,99920.66
2022-11-13T23:55:52.015Z,99923.28
